Time;durP1;ratioP1;P1;durP2;ratioP2;P2;SDS_P1;SDS_P2;PMS_P1;PMS_P2;Temp;Humidity;BMP_temperature;BMP_pressure;BME280_temperature;BME280_humidity;BME280_pressure;Samples;Min_cycle;Max_cycle;Signal;HPM_P1;HPM_P2
2021/01/25 00:00:05;;;;;;;16.08;11.19;;;1.50;99.90;;;3.71;100.00;99834.05;1708876;74;24580;-76
2021/01/25 00:02:23;;;;;;;16.56;12.04;;;1.60;99.90;;;3.80;100.00;99837.69;1718093;73;24815;-76
2021/01/25 00:04:41;;;;;;;13.54;10.67;;;1.60;99.90;;;3.75;99.57;99839.70;1717608;73;24565;-76
2021/01/25 00:06:57;;;;;;;16.18;11.68;;;1.60;99.90;;;3.72;99.28;99840.52;1708270;74;24493;-76
2021/01/25 00:09:13;;;;;;;14.19;11.08;;;1.60;99.90;;;3.74;99.68;99845.30;1706588;74;24896;-77
2021/01/25 00:11:32;;;;;;;13.38;11.23;;;1.70;99.90;;;3.85;99.90;99848.09;1706870;74;24974;-77
2021/01/25 00:13:48;;;;;;;14.35;10.94;;;1.70;99.90;;;3.85;99.99;99848.09;1708968;74;24965;-76
2021/01/25 00:16:05;;;;;;;14.37;11.12;;;1.70;99.90;;;3.84;99.77;99848.49;1703438;74;25179;-77
2021/01/25 00:18:21;;;;;;;14.26;10.93;;;1.80;99.90;;;3.87;99.86;99844.69;1703775;74;24495;-76
2021/01/25 00:20:37;;;;;;;13.11;10.43;;;1.80;99.90;;;3.87;99.77;99842.56;1701513;74;24433;-78
2021/01/25 00:22:54;;;;;;;12.34;10.20;;;1.80;99.90;;;3.86;99.92;99841.67;1710202;74;24499;-76
2021/01/25 00:25:15;;;;;;;14.68;10.84;;;1.80;99.90;;;3.95;99.92;99844.44;1710960;74;24445;-76
2021/01/25 00:27:31;;;;;;;13.89;11.04;;;1.90;99.90;;;3.95;99.82;99843.59;1712082;74;24445;-75
2021/01/25 00:29:47;;;;;;;16.72;11.37;;;1.90;99.90;;;3.88;100.00;99839.13;1713500;74;24445;-76
2021/01/25 00:32:06;;;;;;;14.53;11.30;;;1.90;99.90;;;3.79;100.00;99841.12;1711243;74;24991;-75
2021/01/25 00:34:23;;;;;;;15.97;11.58;;;1.80;99.90;;;3.78;100.00;99850.09;1715794;74;25074;-77
2021/01/25 00:36:42;;;;;;;13.60;11.39;;;1.80;99.90;;;3.79;100.00;99835.97;1719734;74;24503;-77
2021/01/25 00:38:59;;;;;;;13.98;11.49;;;1.80;99.90;;;3.77;100.00;99840.62;1722344;74;24483;-76
2021/01/25 00:41:16;;;;;;;13.61;10.74;;;1.80;99.90;;;3.75;100.00;99839.70;1717250;74;24448;-77
2021/01/25 00:43:39;;;;;;;14.41;11.09;;;1.80;99.90;;;3.74;100.00;99839.27;1703143;74;24949;-76
2021/01/25 00:45:55;;;;;;;14.49;11.32;;;1.80;99.90;;;3.73;100.00;99842.25;1712357;74;24445;-76
2021/01/25 00:48:12;;;;;;;16.42;11.80;;;1.80;99.90;;;3.72;100.00;99844.38;1718549;74;24930;-76
2021/01/25 00:50:41;;;;;;;14.27;10.50;;;1.80;99.90;;;3.55;100.00;99839.30;1699784;74;24520;-77
2021/01/25 00:53:02;;;;;;;13.13;10.51;;;1.80;99.90;;;3.61;100.00;99840.70;1700452;73;24547;-76
2021/01/25 00:55:21;;;;;;;11.19;9.68;;;1.80;99.90;;;3.71;100.00;99836.62;1707650;74;24548;-78
2021/01/25 00:57:39;;;;;;;12.20;9.58;;;1.70;99.90;;;3.72;100.00;99835.38;1713203;74;24499;-76
2021/01/25 00:59:58;;;;;;;11.91;8.84;;;1.70;99.90;;;3.65;100.00;99842.50;1708465;74;24445;-76
2021/01/25 01:02:17;;;;;;;11.61;8.47;;;1.70;99.90;;;3.60;100.00;99838.11;1712133;74;24449;-76
2021/01/25 01:04:33;;;;;;;10.86;8.10;;;1.70;99.90;;;3.68;100.00;99845.17;1710642;74;24452;-77
2021/01/25 01:06:49;;;;;;;13.11;9.95;;;1.70;99.90;;;3.62;100.00;99847.58;1708969;74;24543;-78
2021/01/25 01:09:06;;;;;;;14.00;11.30;;;1.70;99.90;;;3.64;100.00;99844.63;1710912;74;24448;-77
2021/01/25 01:11:23;;;;;;;17.30;11.72;;;1.70;99.90;;;3.68;100.00;99845.17;1712180;74;24451;-79
2021/01/25 01:13:39;;;;;;;15.04;12.17;;;1.70;99.90;;;3.71;100.00;99858.10;1713626;74;24946;-77
2021/01/25 01:15:58;;;;;;;15.15;11.61;;;1.70;99.90;;;3.67;100.00;99851.13;1710860;74;24423;-77
2021/01/25 01:18:15;;;;;;;16.32;12.59;;;1.70;99.90;;;3.72;100.00;99853.39;1718461;74;24448;-78
2021/01/25 01:20:34;;;;;;;16.43;12.90;;;1.70;99.90;;;3.66;100.00;99860.98;1714395;74;24382;-76
2021/01/25 01:22:53;;;;;;;19.06;13.36;;;1.70;99.90;;;3.61;100.00;99861.70;1702127;75;24907;-76
2021/01/25 01:25:11;;;;;;;19.22;13.79;;;1.70;99.90;;;3.54;100.00;99864.55;1691046;75;24500;-76
2021/01/25 01:27:27;;;;;;;21.91;15.10;;;1.70;99.90;;;3.69;100.00;99860.17;1699194;75;24448;-75
2021/01/25 01:29:44;;;;;;;18.42;14.29;;;1.70;99.90;;;3.66;100.00;99863.56;1692672;75;24439;-78
2021/01/25 01:32:04;;;;;;;18.34;14.44;;;1.70;99.90;;;3.64;100.00;99869.48;1690207;74;24479;-76
2021/01/25 01:34:20;;;;;;;17.09;13.34;;;1.70;99.90;;;3.63;100.00;99873.80;1700294;75;24883;-76
2021/01/25 01:36:36;;;;;;;19.07;14.86;;;1.60;99.90;;;3.57;100.00;99871.50;1686132;75;24519;-76
2021/01/25 01:38:52;;;;;;;19.93;15.27;;;1.60;99.90;;;3.73;100.00;99867.14;1700680;74;24507;-76
2021/01/25 01:41:08;;;;;;;23.05;15.74;;;1.60;99.90;;;3.67;100.00;99876.88;1696593;75;24903;-76
2021/01/25 01:43:24;;;;;;;20.88;15.79;;;1.60;99.90;;;3.58;100.00;99868.95;1698184;75;24550;-77
2021/01/25 01:45:40;;;;;;;21.40;16.32;;;1.60;99.90;;;3.72;100.00;99871.82;1701453;74;24481;-76
2021/01/25 01:48:00;;;;;;;22.24;16.17;;;1.60;99.90;;;3.77;100.00;99876.66;1682653;75;24910;-78
2021/01/25 01:50:16;;;;;;;21.72;17.17;;;1.70;99.90;;;3.80;100.00;99878.01;1691835;75;25140;-77
2021/01/25 01:52:32;;;;;;;22.72;17.59;;;1.70;99.90;;;3.80;100.00;99874.14;1688501;74;25088;-77
2021/01/25 01:54:51;;;;;;;23.56;17.88;;;1.70;99.90;;;3.84;100.00;99876.81;1700188;74;24453;-76
2021/01/25 01:57:08;;;;;;;23.57;18.61;;;1.70;99.90;;;3.89;100.00;99884.23;1687995;75;24931;-77
2021/01/25 01:59:25;;;;;;;23.17;18.21;;;1.70;99.90;;;3.86;100.00;99887.14;1676901;75;24427;-77
2021/01/25 02:01:41;;;;;;;25.08;19.92;;;1.70;99.90;;;3.84;100.00;99888.84;1690564;75;24934;-76
2021/01/25 02:03:58;;;;;;;24.25;19.84;;;1.80;99.90;;;3.85;100.00;99887.59;1688146;75;24970;-77
2021/01/25 02:06:18;;;;;;;24.88;18.62;;;1.80;99.90;;;3.90;100.00;99884.70;1686207;75;24476;-77
2021/01/25 02:08:36;;;;;;;23.80;19.36;;;1.80;99.90;;;3.89;100.00;99885.52;1690042;75;24516;-77
2021/01/25 02:10:56;;;;;;;22.93;18.26;;;1.80;99.90;;;3.98;100.00;99891.29;1691033;75;24449;-78
2021/01/25 02:13:14;;;;;;;25.84;18.37;;;1.80;99.90;;;4.00;100.00;99893.05;1701720;75;24461;-76
2021/01/25 02:15:34;;;;;;;22.99;16.21;;;1.80;99.90;;;4.01;100.00;99890.94;1691050;75;24452;-76
2021/01/25 02:17:51;;;;;;;21.13;16.92;;;1.90;99.90;;;3.84;100.00;99891.42;1689093;75;24496;-75
2021/01/25 02:20:15;;;;;;;22.77;16.68;;;1.80;99.90;;;4.02;100.00;99893.95;1697401;75;24887;-77
2021/01/25 02:25:46;;;;;;;23.49;16.52;;;1.90;99.90;;;4.28;100.00;99891.92;1739812;72;25257;-77
2021/01/25 02:28:05;;;;;;;22.29;17.50;;;1.90;99.90;;;4.10;100.00;99891.12;1704696;75;24903;-76
2021/01/25 02:30:22;;;;;;;24.67;18.40;;;1.90;99.90;;;4.07;100.00;99891.06;1660083;76;24440;-78
2021/01/25 02:32:40;;;;;;;26.18;18.07;;;1.90;99.90;;;4.04;100.00;99897.45;1704722;74;24428;-75
2021/01/25 02:34:58;;;;;;;22.71;18.28;;;1.90;99.90;;;4.07;100.00;99902.66;1699846;75;24942;-75
2021/01/25 02:37:15;;;;;;;24.23;19.03;;;1.90;99.90;;;4.07;100.00;99893.64;1698482;75;24482;-77
2021/01/25 02:39:36;;;;;;;24.32;18.82;;;1.90;99.90;;;4.11;100.00;99899.29;1704918;75;24464;-76
2021/01/25 02:41:53;;;;;;;24.31;17.95;;;2.00;99.90;;;4.12;100.00;99900.17;1697163;75;24425;-78
2021/01/25 02:44:12;;;;;;;25.80;18.10;;;2.00;99.90;;;4.12;100.00;99898.48;1706946;75;25051;-76
2021/01/25 02:46:31;;;;;;;22.95;17.93;;;2.00;99.90;;;4.10;100.00;99904.41;1698961;75;24458;-77
2021/01/25 02:48:48;;;;;;;25.80;18.58;;;2.00;99.90;;;4.15;100.00;99898.95;1697257;75;24485;-76
2021/01/25 02:51:05;;;;;;;28.86;18.08;;;2.00;99.90;;;4.12;100.00;99902.34;1695974;75;24453;-76
2021/01/25 02:53:22;;;;;;;24.32;19.56;;;2.00;99.90;;;4.07;100.00;99905.23;1705365;75;24956;-78
2021/01/25 02:55:38;;;;;;;27.27;19.92;;;2.00;99.90;;;4.01;100.00;99905.52;1703320;75;24435;-76
2021/01/25 02:57:57;;;;;;;28.45;20.18;;;2.00;99.90;;;3.92;100.00;99908.75;1700929;75;24441;-77
2021/01/25 03:00:18;;;;;;;27.84;21.73;;;2.00;99.90;;;3.90;100.00;99909.56;1700360;75;24518;-77
2021/01/25 03:02:35;;;;;;;28.19;21.44;;;1.90;99.90;;;3.87;100.00;99907.77;1695225;75;24962;-76
2021/01/25 03:04:53;;;;;;;31.25;23.50;;;1.90;99.90;;;3.75;100.00;99904.94;1706401;75;24522;-76
2021/01/25 03:07:09;;;;;;;31.90;23.66;;;1.90;99.90;;;3.72;100.00;99912.59;1695632;75;24500;-77
2021/01/25 03:09:27;;;;;;;27.82;22.14;;;1.80;99.90;;;3.71;100.00;99912.56;1691687;75;24496;-77
2021/01/25 03:11:43;;;;;;;28.73;22.30;;;1.80;99.90;;;3.79;100.00;99919.64;1696486;75;24883;-76
2021/01/25 03:14:10;;;;;;;33.00;22.41;;;1.80;99.90;;;3.70;100.00;99919.84;1702168;74;24894;-77
2021/01/25 03:16:26;;;;;;;29.67;22.66;;;1.80;99.90;;;3.70;100.00;99921.14;1668427;76;24894;-77
2021/01/25 03:18:42;;;;;;;31.30;22.68;;;1.70;99.90;;;3.71;100.00;99928.02;1703529;75;24593;-77
2021/01/25 03:20:59;;;;;;;32.29;22.51;;;1.70;99.90;;;3.79;100.00;99921.34;1695036;75;24440;-77
2021/01/25 03:23:15;;;;;;;29.74;22.74;;;1.70;99.90;;;3.75;100.00;99919.10;1703102;75;24434;-77
2021/01/25 03:25:31;;;;;;;31.71;24.45;;;1.70;99.90;;;3.80;100.00;99922.66;1702752;74;24558;-77
2021/01/25 03:27:48;;;;;;;40.10;27.74;;;1.70;99.90;;;3.78;100.00;99919.61;1714732;74;24467;-78
2021/01/25 03:30:10;;;;;;;37.49;28.32;;;1.70;99.90;;;3.77;100.00;99926.45;1700282;74;24425;-78
2021/01/25 03:32:31;;;;;;;37.95;28.08;;;1.70;99.90;;;3.75;100.00;99923.37;1706958;73;24447;-77
2021/01/25 03:34:47;;;;;;;46.78;33.46;;;1.70;99.90;;;3.71;100.00;99931.47;1707818;74;24468;-77
2021/01/25 03:37:03;;;;;;;61.39;43.04;;;1.70;99.90;;;3.68;100.00;99932.69;1713373;74;25046;-77
2021/01/25 03:39:20;;;;;;;70.15;48.76;;;1.70;99.90;;;3.81;100.00;99938.55;1699163;73;24476;-77
2021/01/25 03:41:37;;;;;;;73.26;48.83;;;1.70;99.90;;;3.81;100.00;99935.97;1700185;74;24498;-77
2021/01/25 03:43:54;;;;;;;62.28;45.30;;;1.70;99.90;;;3.80;100.00;99936.81;1701729;74;24436;-77
2021/01/25 03:46:10;;;;;;;40.95;30.62;;;1.70;99.90;;;3.79;100.00;99938.95;1705541;74;24485;-78
2021/01/25 03:48:29;;;;;;;35.17;26.24;;;1.70;99.90;;;3.72;100.00;99946.06;1697350;74;24449;-78
2021/01/25 03:50:45;;;;;;;29.71;22.89;;;1.70;99.90;;;3.69;100.00;99944.71;1697362;74;24452;-77
2021/01/25 03:53:05;;;;;;;29.94;21.70;;;1.60;99.90;;;3.66;100.00;99954.05;1708120;74;24481;-77
2021/01/25 03:55:22;;;;;;;28.77;21.81;;;1.70;99.90;;;3.56;100.00;99953.38;1688663;74;25013;-77
2021/01/25 03:57:38;;;;;;;30.18;22.08;;;1.60;99.90;;;3.64;100.00;99960.45;1705204;74;24451;-79
2021/01/25 03:59:56;;;;;;;30.54;22.93;;;1.60;99.90;;;3.60;100.00;99960.35;1696047;74;24897;-79
2021/01/25 04:02:14;;;;;;;29.69;22.12;;;1.60;99.90;;;3.55;100.00;99957.67;1713398;74;24560;-79
2021/01/25 04:04:30;;;;;;;28.50;23.34;;;1.60;99.90;;;3.53;100.00;99964.88;1699273;74;24430;-78
2021/01/25 04:06:46;;;;;;;29.75;22.92;;;1.60;99.90;;;3.56;100.00;99965.84;1704071;74;24480;-77
2021/01/25 04:09:04;;;;;;;28.82;21.75;;;1.60;99.90;;;3.57;100.00;99965.02;1705658;74;24435;-77
2021/01/25 04:11:21;;;;;;;28.17;21.81;;;1.60;99.90;;;3.58;100.00;99973.59;1713689;74;24528;-77
2021/01/25 04:13:38;;;;;;;30.97;22.19;;;1.60;99.90;;;3.62;100.00;99982.70;1718591;74;24923;-77
2021/01/25 04:15:55;;;;;;;31.51;22.55;;;1.60;99.90;;;3.62;100.00;99988.30;1705653;74;24435;-78
2021/01/25 04:18:11;;;;;;;28.53;21.74;;;1.60;99.90;;;3.69;100.00;99982.03;1711329;74;24414;-76
2021/01/25 04:20:28;;;;;;;27.24;22.20;;;1.60;99.90;;;3.60;100.00;99992.12;1708022;74;24480;-77
2021/01/25 04:22:45;;;;;;;30.04;22.03;;;1.60;99.90;;;3.65;100.00;99992.23;1705964;74;24909;-77
2021/01/25 04:25:02;;;;;;;30.92;21.64;;;1.60;99.90;;;3.63;100.00;99994.77;1672128;76;24505;-77
2021/01/25 04:27:19;;;;;;;30.72;22.26;;;1.60;99.90;;;3.64;100.00;99995.20;1685421;75;24461;-78
2021/01/25 04:29:36;;;;;;;30.32;21.65;;;1.60;99.90;;;3.65;100.00;99994.80;1684755;75;25014;-78
2021/01/25 04:31:52;;;;;;;28.73;21.44;;;1.60;99.90;;;3.66;100.00;99999.98;1688131;75;24937;-77
2021/01/25 04:34:08;;;;;;;26.33;21.07;;;1.60;99.90;;;3.59;100.00;99997.23;1688155;75;24472;-80
2021/01/25 04:36:27;;;;;;;26.33;20.70;;;1.50;99.90;;;3.56;100.00;100000.98;1686933;75;24529;-78
2021/01/25 04:38:45;;;;;;;24.70;19.88;;;1.50;99.90;;;3.49;100.00;99997.83;1701663;74;24430;-78
2021/01/25 04:41:01;;;;;;;27.37;20.48;;;1.40;99.90;;;3.40;100.00;99999.74;1690859;75;24586;-79
2021/01/25 04:43:19;;;;;;;26.77;20.50;;;1.40;99.90;;;3.34;100.00;100006.43;1689784;75;24398;-77
2021/01/25 04:45:37;;;;;;;26.65;20.22;;;1.30;99.90;;;3.29;100.00;100002.45;1692289;75;25033;-77
2021/01/25 04:47:56;;;;;;;28.36;21.76;;;1.30;99.90;;;3.23;100.00;100002.30;1679290;75;24398;-77
2021/01/25 04:50:13;;;;;;;26.86;21.10;;;1.20;99.90;;;3.18;100.00;100006.45;1689382;75;24377;-78
2021/01/25 04:52:31;;;;;;;32.69;22.79;;;1.20;99.90;;;3.13;100.00;100003.32;1690671;75;24847;-77
2021/01/25 04:54:49;;;;;;;30.95;21.77;;;1.20;99.90;;;3.05;100.00;100004.41;1687747;75;24501;-79
2021/01/25 04:57:09;;;;;;;29.93;22.51;;;1.10;99.90;;;2.96;100.00;100010.17;1686761;75;24446;-78
2021/01/25 04:59:27;;;;;;;32.29;23.59;;;1.00;99.90;;;2.92;100.00;100010.89;1682895;74;24460;-78
2021/01/25 05:01:43;;;;;;;32.38;23.53;;;1.00;99.90;;;2.89;100.00;100016.39;1695923;75;24521;-77
2021/01/25 05:04:02;;;;;;;32.77;24.19;;;0.90;99.90;;;2.85;100.00;100017.13;1687022;75;24511;-78
2021/01/25 05:06:19;;;;;;;32.78;24.85;;;0.90;99.90;;;2.79;100.00;100016.55;1691215;75;24657;-77
2021/01/25 05:08:37;;;;;;;29.84;23.87;;;0.80;99.90;;;2.74;100.00;100019.80;1684458;75;24433;-78
2021/01/25 05:10:56;;;;;;;32.60;24.07;;;0.70;99.90;;;2.72;100.00;100022.33;1688465;75;24926;-78
2021/01/25 05:13:21;;;;;;;33.25;24.59;;;0.70;99.90;;;2.59;100.00;100021.52;1691760;75;24886;-78
2021/01/25 05:15:39;;;;;;;32.57;23.90;;;0.60;99.90;;;2.57;100.00;100031.31;1686570;75;24433;-77
2021/01/25 05:17:56;;;;;;;33.25;24.57;;;0.60;99.90;;;2.51;100.00;100037.56;1689469;75;24584;-76
2021/01/25 05:20:12;;;;;;;34.57;24.57;;;0.50;99.90;;;2.45;100.00;100042.09;1686941;75;24454;-80
2021/01/25 05:22:32;;;;;;;35.03;25.55;;;0.40;99.90;;;2.40;100.00;100051.35;1683956;75;24915;-78
2021/01/25 05:24:48;;;;;;;33.68;25.22;;;0.40;99.90;;;2.41;100.00;100058.66;1683576;75;24527;-78
2021/01/25 05:27:04;;;;;;;33.71;25.05;;;0.30;99.90;;;2.44;100.00;100054.89;1699445;74;24440;-79
2021/01/25 05:29:29;;;;;;;33.93;25.41;;;0.30;99.90;;;2.40;100.00;100068.48;1703117;74;24433;-76
2021/01/25 05:31:50;;;;;;;33.97;25.29;;;0.30;99.90;;;2.35;100.00;100068.35;1704904;74;24901;-79
2021/01/25 05:34:08;;;;;;;34.35;24.56;;;0.20;99.90;;;2.29;100.00;100070.70;1705455;74;24437;-77
2021/01/25 05:36:27;;;;;;;38.97;26.46;;;0.20;99.90;;;2.22;100.00;100078.19;1707609;74;24991;-77
2021/01/25 05:38:43;;;;;;;34.03;25.15;;;0.10;99.90;;;2.21;100.00;100080.30;1706301;74;24440;-77
2021/01/25 05:41:02;;;;;;;34.30;25.25;;;0.00;99.90;;;2.10;100.00;100076.53;1708635;74;24471;-76
2021/01/25 05:43:20;;;;;;;34.64;25.47;;;0.00;99.90;;;2.02;100.00;100079.27;1700508;74;24586;-76
2021/01/25 05:45:38;;;;;;;33.14;25.20;;;-0.10;99.90;;;1.98;100.00;100074.84;1702541;74;24508;-77
2021/01/25 05:47:58;;;;;;;32.69;24.80;;;-0.20;99.90;;;1.88;100.00;100077.95;1707085;74;24496;-79
2021/01/25 05:50:33;;;;;;;33.34;25.18;;;-0.20;99.90;;;1.75;100.00;100076.69;1702513;74;24583;-77
2021/01/25 05:52:49;;;;;;;35.56;25.24;;;-0.30;99.90;;;1.67;100.00;100079.80;1708670;74;24508;-76
2021/01/25 05:55:09;;;;;;;38.76;26.16;;;-0.30;99.90;;;1.62;100.00;100075.81;1700035;74;24448;-76
2021/01/25 05:57:28;;;;;;;36.91;26.92;;;-0.30;99.90;;;1.57;100.00;100077.34;1712615;74;24500;-76
2021/01/25 05:59:48;;;;;;;37.43;27.80;;;-0.30;99.90;;;1.55;100.00;100083.70;1705318;74;24436;-75
2021/01/25 06:02:04;;;;;;;39.14;28.45;;;-0.40;99.90;;;1.70;100.00;100091.05;1706616;74;24438;-77
2021/01/25 06:04:23;;;;;;;40.38;29.37;;;-0.40;99.90;;;1.86;100.00;100091.14;1714978;74;24478;-77
2021/01/25 06:06:39;;;;;;;45.00;31.59;;;-0.40;99.90;;;1.85;100.00;100100.95;1713851;74;24523;-76
2021/01/25 06:09:06;;;;;;;45.68;31.98;;;-0.50;99.90;;;1.92;100.00;100094.78;1714539;74;24884;-77
2021/01/25 06:11:33;;;;;;;45.76;31.93;;;-0.50;99.90;;;1.96;100.00;100099.61;1713444;74;24363;-76
2021/01/25 06:14:03;;;;;;;47.74;32.77;;;-0.50;99.90;;;1.98;100.00;100101.79;1696732;74;24456;-76
2021/01/25 06:16:24;;;;;;;46.50;31.43;;;-0.50;99.90;;;1.98;100.00;100099.22;1715251;74;24431;-76
2021/01/25 06:18:44;;;;;;;45.61;32.10;;;-0.50;99.90;;;1.94;100.00;100108.95;1710183;74;24571;-76
2021/01/25 06:21:04;;;;;;;46.68;31.57;;;-0.50;99.90;;;1.90;100.00;100108.40;1705147;74;24854;-77
2021/01/25 06:23:31;;;;;;;41.13;30.31;;;-0.60;99.90;;;1.76;100.00;100103.19;1700661;74;24480;-76
2021/01/25 06:25:49;;;;;;;39.83;29.05;;;-0.60;99.90;;;1.56;100.00;100114.94;1709937;74;24917;-78
2021/01/25 06:28:06;;;;;;;40.08;29.17;;;-0.70;99.90;;;1.44;100.00;100115.81;1700453;74;24454;-76
2021/01/25 06:30:36;;;;;;;39.11;27.86;;;-0.70;99.90;;;1.34;100.00;100111.60;1712048;74;24484;-78
2021/01/25 06:32:55;;;;;;;39.52;28.80;;;-0.70;99.90;;;1.30;100.00;100118.31;1713198;74;24889;-76
2021/01/25 06:35:17;;;;;;;38.23;28.10;;;-0.70;99.90;;;1.24;100.00;100130.03;1704893;74;24929;-77
2021/01/25 06:37:41;;;;;;;46.08;30.60;;;-0.80;99.90;;;1.26;100.00;100132.25;1705559;74;24939;-76
2021/01/25 06:40:04;;;;;;;46.85;30.48;;;-0.80;99.90;;;1.41;100.00;100131.50;1708063;74;24567;-77
2021/01/25 06:42:21;;;;;;;39.57;29.07;;;-0.80;99.90;;;1.35;100.00;100141.14;1709219;74;25138;-77
2021/01/25 06:44:40;;;;;;;45.34;31.90;;;-0.90;99.90;;;1.23;100.00;100144.97;1705849;74;24386;-74
2021/01/25 06:47:02;;;;;;;48.00;32.56;;;-0.90;99.90;;;1.37;100.00;100154.91;1707897;74;24514;-78
2021/01/25 06:49:21;;;;;;;53.30;34.19;;;-0.90;99.90;;;1.39;100.00;100155.80;1704430;74;24417;-76
2021/01/25 06:51:44;;;;;;;58.07;36.18;;;-1.00;99.90;;;1.47;100.00;100172.34;1707361;74;24572;-75
2021/01/25 06:54:05;;;;;;;55.22;35.93;;;-1.00;99.90;;;1.59;100.00;100173.20;1706060;74;24444;-76
2021/01/25 06:56:22;;;;;;;56.00;35.53;;;-1.00;99.90;;;1.61;100.00;100171.56;1710613;74;24468;-78
2021/01/25 06:58:48;;;;;;;49.80;32.62;;;-1.00;99.90;;;1.41;100.00;100172.13;1700312;74;24840;-77
2021/01/25 07:01:11;;;;;;;48.98;33.66;;;-1.10;99.90;;;1.26;100.00;100179.29;1710155;74;24512;-76
2021/01/25 07:03:28;;;;;;;51.86;33.29;;;-1.00;99.90;;;1.24;100.00;100181.31;1708899;74;24877;-76
2021/01/25 07:05:50;;;;;;;46.40;31.80;;;-1.00;99.90;;;1.17;100.00;100185.77;1701157;74;24502;-75
2021/01/25 07:08:22;;;;;;;45.90;31.28;;;-1.10;99.90;;;1.09;100.00;100194.86;1707854;74;24439;-77
2021/01/25 07:10:39;;;;;;;44.83;30.47;;;-1.10;99.90;;;0.90;100.00;100194.98;1709781;74;24553;-76
2021/01/25 07:12:55;;;;;;;46.01;30.29;;;-1.10;99.90;;;0.85;100.00;100197.77;1703289;74;25852;-76
2021/01/25 07:15:15;;;;;;;41.67;27.97;;;-1.20;99.90;;;0.79;100.00;100202.67;1704337;74;24664;-80
2021/01/25 07:17:36;;;;;;;42.13;29.14;;;-1.20;99.90;;;0.69;100.00;100205.28;1706167;74;24548;-81
2021/01/25 07:19:56;;;;;;;43.07;29.67;;;-1.20;99.90;;;0.60;100.00;100211.30;1704571;74;24864;-81
2021/01/25 07:22:13;;;;;;;44.08;29.96;;;-1.20;99.90;;;0.66;100.00;100210.29;1703490;74;24451;-79
2021/01/25 07:24:32;;;;;;;46.89;31.38;;;-1.20;99.90;;;0.69;100.00;100218.09;1716747;74;24937;-77
2021/01/25 07:26:59;;;;;;;50.11;31.94;;;-1.20;99.90;;;0.99;100.00;100226.97;1710621;74;24513;-79
2021/01/25 07:29:17;;;;;;;50.04;32.20;;;-1.20;99.90;;;1.05;100.00;100228.88;1699159;74;24392;-79
2021/01/25 07:31:38;;;;;;;49.38;32.77;;;-1.30;99.90;;;0.93;100.00;100235.67;1714504;74;24965;-77
2021/01/25 07:33:56;;;;;;;51.90;33.97;;;-1.30;99.90;;;0.93;100.00;100234.82;1711481;73;25030;-78
2021/01/25 07:36:16;;;;;;;52.17;34.37;;;-1.30;99.90;;;1.03;100.00;100239.46;1712231;73;24969;-80
2021/01/25 07:38:33;;;;;;;55.00;35.79;;;-1.40;99.90;;;1.10;100.00;100245.30;1703971;74;24941;-79
2021/01/25 07:40:52;;;;;;;57.09;37.42;;;-1.30;99.90;;;1.20;100.00;100250.83;1705365;74;24486;-78
2021/01/25 07:43:09;;;;;;;62.10;38.59;;;-1.30;99.90;;;1.34;100.00;100253.92;1713776;74;24449;-78
2021/01/25 07:45:28;;;;;;;62.54;38.65;;;-1.20;99.90;;;1.37;100.00;100266.46;1706642;73;24998;-80
2021/01/25 07:47:52;;;;;;;66.47;40.90;;;-1.30;99.90;;;1.41;100.00;100269.98;1701426;73;25016;-79
2021/01/25 08:19:45;;;;;;;59.92;36.77;;;-0.90;99.90;;;1.75;100.00;100320.86;1729971;72;25397;-79
2021/01/25 08:52:49;;;;;;;78.67;45.97;;;-0.90;99.90;;;2.11;100.00;100355.16;1730064;72;25276;-78
2021/01/25 08:55:37;;;;;;;75.83;45.04;;;-0.80;99.90;;;1.96;100.00;100361.45;1698720;75;24499;-77
2021/01/25 08:58:09;;;;;;;81.12;46.60;;;-0.80;99.90;;;1.87;100.00;100369.67;1697028;73;24455;-78
2021/01/25 09:01:07;;;;;;;75.53;47.04;;;-0.70;99.90;;;1.88;100.00;100376.97;1703547;75;24542;-79
2021/01/25 09:03:31;;;;;;;78.07;48.06;;;-0.70;99.90;;;1.84;100.00;100376.37;1699246;73;25048;-76
2021/01/25 09:06:02;;;;;;;80.68;48.13;;;-0.60;99.90;;;1.95;100.00;100376.36;1700363;75;25042;-79
2021/01/25 09:09:10;;;;;;;76.54;47.47;;;-0.50;99.90;;;2.04;100.00;100377.57;1704066;74;24994;-80
2021/01/25 09:11:39;;;;;;;81.99;47.92;;;-0.40;99.90;;;2.09;100.00;100381.59;1697680;74;24468;-80
2021/01/25 09:13:56;;;;;;;85.46;50.83;;;-0.30;99.90;;;2.27;100.00;100388.69;1701618;75;24489;-76
2021/01/25 09:16:15;;;;;;;80.93;50.27;;;-0.20;99.90;;;2.28;100.00;100395.16;1700672;75;24516;-78
2021/01/25 09:18:33;;;;;;;79.26;49.17;;;-0.10;99.90;;;2.38;100.00;100396.36;1697160;73;24895;-78
2021/01/25 09:20:51;;;;;;;80.03;49.67;;;0.00;99.90;;;2.43;100.00;100401.26;1699711;75;24522;-76
2021/01/25 09:23:10;;;;;;;83.10;49.35;;;0.00;99.90;;;2.56;100.00;100407.30;1718363;73;24711;-76
2021/01/25 09:25:33;;;;;;;77.21;48.25;;;0.10;99.90;;;2.79;100.00;100403.81;1678933;74;24496;-78
2021/01/25 09:27:48;;;;;;;75.12;47.15;;;0.20;99.90;;;2.81;100.00;100407.33;1706352;73;24604;-78
2021/01/25 09:30:12;;;;;;;70.09;46.07;;;0.30;99.90;;;2.80;100.00;100409.01;1698690;75;24573;-77
2021/01/25 09:32:32;;;;;;;65.87;42.79;;;0.40;99.90;;;2.85;100.00;100412.62;1692103;75;24489;-78
2021/01/25 09:34:57;;;;;;;70.76;43.92;;;0.40;99.90;;;2.90;100.00;100420.48;1700670;75;24458;-79
2021/01/25 09:37:09;;;;;;;67.66;44.06;;;0.50;99.90;;;2.98;100.00;100424.19;1692207;75;25118;-80
2021/01/25 09:39:30;;;;;;;59.94;40.92;;;0.60;99.90;;;3.06;100.00;100431.34;1691390;75;24386;-76
2021/01/25 09:41:49;;;;;;;65.07;41.39;;;0.60;99.90;;;3.18;100.00;100427.44;1705441;74;24586;-79
2021/01/25 09:44:12;;;;;;;58.84;40.64;;;0.70;99.90;;;3.20;100.00;100434.36;1702073;73;24478;-76
2021/01/25 09:49:34;;;;;;;61.03;39.83;;;0.90;99.90;;;3.72;100.00;100445.90;1704882;74;25961;-79
2021/01/25 09:51:56;;;;;;;60.23;39.77;;;1.00;99.90;;;3.64;100.00;100441.81;1664610;74;24581;-77
2021/01/25 09:54:17;;;;;;;59.70;40.95;;;1.10;99.90;;;3.71;100.00;100445.05;1673948;75;24537;-78
2021/01/25 09:57:18;;;;;;;65.51;40.05;;;1.20;99.90;;;3.76;100.00;100449.90;1660371;76;24744;-79
2021/01/25 10:00:11;;;;;;;58.07;39.82;;;1.30;99.90;;;3.85;100.00;100458.34;1582456;77;24544;-80
2021/01/25 10:02:58;;;;;;;49.00;34.91;;;1.40;99.90;;;3.87;100.00;100466.55;1647473;75;24544;-77
2021/01/25 10:05:32;;;;;;;54.20;35.90;;;1.50;99.90;;;3.69;100.00;100471.15;1661000;75;24542;-79
2021/01/25 10:08:04;;;;;;;44.93;32.03;;;1.50;99.90;;;3.88;100.00;100474.77;1687103;74;24591;-78
2021/01/25 10:10:24;;;;;;;45.21;31.89;;;1.60;99.90;;;3.90;99.89;100474.41;1673721;74;24440;-76
2021/01/25 10:12:41;;;;;;;41.00;29.33;;;1.70;99.90;;;4.10;100.00;100484.89;1679985;74;24526;-76
2021/01/25 10:14:57;;;;;;;38.61;28.66;;;1.70;99.90;;;4.08;99.12;100488.23;1692850;74;24477;-77
2021/01/25 10:17:19;;;;;;;37.01;27.51;;;1.90;99.90;;;4.32;99.24;100488.57;1693763;74;24559;-78
2021/01/25 10:24:16;;;;;;;28.95;23.10;;;3.40;99.90;;;4.50;97.48;100495.53;1717386;73;32653;-79
2021/01/25 10:26:59;;;;;;;26.68;21.23;;;5.00;99.90;;;4.49;97.05;100506.69;1684910;75;24682;-79
2021/01/25 10:29:43;;;;;;;27.95;19.74;;;5.90;99.90;;;4.74;96.26;100509.97;1721816;73;24521;-80
2021/01/25 10:32:55;;;;;;;24.61;18.84;;;6.70;99.90;;;5.23;96.09;100500.15;1708818;73;24962;-79
2021/01/25 10:39:34;;;;;;;23.27;17.86;;;8.20;99.90;;;6.07;93.65;100519.05;1747440;72;26295;-82
2021/01/25 11:01:28;;;;;;;15.73;12.93;;;12.00;99.90;;;7.91;89.19;100528.77;1740251;72;25806;-77
2021/01/25 11:03:48;;;;;;;16.50;14.54;;;12.40;99.90;;;7.58;83.23;100536.87;1717903;73;24461;-81
2021/01/25 11:06:23;;;;;;;16.93;14.75;;;12.60;99.90;;;8.24;93.96;100541.41;1713947;73;24512;-83
2021/01/25 11:09:50;;;;;;;17.80;14.10;;;12.90;99.90;;;8.41;89.29;100546.44;1714372;73;25061;-82
2021/01/25 11:12:10;;;;;;;16.70;13.43;;;13.30;99.90;;;8.60;96.19;100551.89;1713865;73;25124;-79
2021/01/25 11:31:55;;;;;;;13.86;11.19;;;14.70;99.90;;;10.05;100.00;100554.33;1742246;72;33604;-79